sensor_id;sensor_type;location;lat;lon;timestamp;P1;durP1;ratioP1;P2;durP2;ratioP2
74541;SDS011;63015;45.378;20.360;2024-01-27T00:00:47;16.38;;;6.70;;
74541;SDS011;63015;45.378;20.360;2024-01-27T00:02:47;19.40;;;6.45;;
74541;SDS011;63015;45.378;20.360;2024-01-27T00:04:48;17.13;;;6.65;;
74541;SDS011;63015;45.378;20.360;2024-01-27T00:06:48;16.13;;;6.47;;
74541;SDS011;63015;45.378;20.360;2024-01-27T00:08:49;17.42;;;6.68;;
74541;SDS011;63015;45.378;20.360;2024-01-27T00:10:49;16.55;;;6.72;;
74541;SDS011;63015;45.378;20.360;2024-01-27T00:12:50;18.52;;;7.40;;
74541;SDS011;63015;45.378;20.360;2024-01-27T00:14:50;18.67;;;7.30;;
74541;SDS011;63015;45.378;20.360;2024-01-27T00:16:51;17.45;;;8.25;;
74541;SDS011;63015;45.378;20.360;2024-01-27T00:18:51;16.15;;;7.57;;
74541;SDS011;63015;45.378;20.360;2024-01-27T00:20:52;18.23;;;7.38;;
74541;SDS011;63015;45.378;20.360;2024-01-27T00:22:52;20.67;;;7.63;;
74541;SDS011;63015;45.378;20.360;2024-01-27T00:24:53;18.67;;;8.07;;
74541;SDS011;63015;45.378;20.360;2024-01-27T00:26:53;20.73;;;9.27;;
74541;SDS011;63015;45.378;20.360;2024-01-27T00:28:54;20.50;;;9.88;;
74541;SDS011;63015;45.378;20.360;2024-01-27T00:30:54;20.65;;;9.13;;
74541;SDS011;63015;45.378;20.360;2024-01-27T00:32:55;23.73;;;10.57;;
74541;SDS011;63015;45.378;20.360;2024-01-27T00:34:55;21.13;;;8.57;;
74541;SDS011;63015;45.378;20.360;2024-01-27T00:36:56;21.75;;;8.93;;
74541;SDS011;63015;45.378;20.360;2024-01-27T00:38:57;26.42;;;11.18;;
74541;SDS011;63015;45.378;20.360;2024-01-27T00:40:57;28.58;;;11.95;;
74541;SDS011;63015;45.378;20.360;2024-01-27T00:42:58;24.80;;;10.32;;
74541;SDS011;63015;45.378;20.360;2024-01-27T00:44:58;24.60;;;10.40;;
74541;SDS011;63015;45.378;20.360;2024-01-27T00:46:59;24.70;;;10.00;;
74541;SDS011;63015;45.378;20.360;2024-01-27T00:48:59;20.92;;;9.07;;
74541;SDS011;63015;45.378;20.360;2024-01-27T00:51:00;20.27;;;8.85;;
74541;SDS011;63015;45.378;20.360;2024-01-27T00:53:00;22.67;;;9.50;;
74541;SDS011;63015;45.378;20.360;2024-01-27T00:55:01;22.90;;;8.75;;
74541;SDS011;63015;45.378;20.360;2024-01-27T00:57:02;19.48;;;8.30;;
74541;SDS011;63015;45.378;20.360;2024-01-27T00:59:02;21.77;;;9.10;;
74541;SDS011;63015;45.378;20.360;2024-01-27T01:01:03;20.02;;;9.02;;
74541;SDS011;63015;45.378;20.360;2024-01-27T01:03:03;18.77;;;8.40;;
74541;SDS011;63015;45.378;20.360;2024-01-27T01:05:04;24.75;;;9.93;;
74541;SDS011;63015;45.378;20.360;2024-01-27T01:07:05;19.85;;;9.18;;
74541;SDS011;63015;45.378;20.360;2024-01-27T01:09:06;19.15;;;7.85;;
74541;SDS011;63015;45.378;20.360;2024-01-27T01:11:07;18.85;;;7.90;;
74541;SDS011;63015;45.378;20.360;2024-01-27T01:13:07;23.83;;;8.77;;
74541;SDS011;63015;45.378;20.360;2024-01-27T01:15:08;21.15;;;9.13;;
74541;SDS011;63015;45.378;20.360;2024-01-27T01:17:08;20.10;;;9.07;;
74541;SDS011;63015;45.378;20.360;2024-01-27T01:19:09;22.38;;;10.23;;
74541;SDS011;63015;45.378;20.360;2024-01-27T01:21:10;24.02;;;10.27;;
74541;SDS011;63015;45.378;20.360;2024-01-27T01:23:10;26.83;;;11.15;;
74541;SDS011;63015;45.378;20.360;2024-01-27T01:25:10;25.80;;;10.73;;
74541;SDS011;63015;45.378;20.360;2024-01-27T01:27:11;25.48;;;10.60;;
74541;SDS011;63015;45.378;20.360;2024-01-27T01:29:11;21.85;;;10.40;;
74541;SDS011;63015;45.378;20.360;2024-01-27T01:31:12;18.83;;;7.75;;
74541;SDS011;63015;45.378;20.360;2024-01-27T01:33:12;21.45;;;7.90;;
74541;SDS011;63015;45.378;20.360;2024-01-27T01:35:13;18.13;;;7.43;;
74541;SDS011;63015;45.378;20.360;2024-01-27T01:37:13;9.88;;;4.25;;
74541;SDS011;63015;45.378;20.360;2024-01-27T01:39:14;11.98;;;4.10;;
74541;SDS011;63015;45.378;20.360;2024-01-27T01:41:14;17.33;;;4.35;;
74541;SDS011;63015;45.378;20.360;2024-01-27T01:43:15;9.60;;;3.88;;
74541;SDS011;63015;45.378;20.360;2024-01-27T01:45:15;10.48;;;3.28;;
74541;SDS011;63015;45.378;20.360;2024-01-27T01:47:17;12.55;;;4.07;;
74541;SDS011;63015;45.378;20.360;2024-01-27T01:49:18;20.77;;;5.68;;
74541;SDS011;63015;45.378;20.360;2024-01-27T01:51:18;9.57;;;3.88;;
74541;SDS011;63015;45.378;20.360;2024-01-27T01:53:19;13.65;;;4.53;;
74541;SDS011;63015;45.378;20.360;2024-01-27T01:55:20;6.88;;;3.88;;
74541;SDS011;63015;45.378;20.360;2024-01-27T01:57:20;11.35;;;4.05;;
74541;SDS011;63015;45.378;20.360;2024-01-27T01:59:21;12.95;;;5.05;;
74541;SDS011;63015;45.378;20.360;2024-01-27T02:01:21;15.43;;;5.25;;
74541;SDS011;63015;45.378;20.360;2024-01-27T02:03:22;9.75;;;3.63;;
74541;SDS011;63015;45.378;20.360;2024-01-27T02:05:22;15.05;;;6.18;;
74541;SDS011;63015;45.378;20.360;2024-01-27T02:07:23;13.13;;;4.60;;
74541;SDS011;63015;45.378;20.360;2024-01-27T02:09:23;10.63;;;4.53;;
74541;SDS011;63015;45.378;20.360;2024-01-27T02:11:24;8.52;;;4.15;;
74541;SDS011;63015;45.378;20.360;2024-01-27T02:13:24;9.07;;;4.07;;
74541;SDS011;63015;45.378;20.360;2024-01-27T02:15:25;10.50;;;4.45;;
74541;SDS011;63015;45.378;20.360;2024-01-27T02:17:26;8.52;;;3.92;;
74541;SDS011;63015;45.378;20.360;2024-01-27T02:19:26;7.47;;;2.88;;
74541;SDS011;63015;45.378;20.360;2024-01-27T02:21:26;12.57;;;3.63;;
74541;SDS011;63015;45.378;20.360;2024-01-27T02:23:27;14.00;;;3.67;;
74541;SDS011;63015;45.378;20.360;2024-01-27T02:25:27;4.65;;;2.35;;
74541;SDS011;63015;45.378;20.360;2024-01-27T02:27:28;6.38;;;2.30;;
74541;SDS011;63015;45.378;20.360;2024-01-27T02:29:28;8.10;;;3.08;;
74541;SDS011;63015;45.378;20.360;2024-01-27T02:31:29;12.55;;;3.25;;
74541;SDS011;63015;45.378;20.360;2024-01-27T02:33:29;8.13;;;2.78;;
74541;SDS011;63015;45.378;20.360;2024-01-27T02:35:30;9.98;;;3.30;;
74541;SDS011;63015;45.378;20.360;2024-01-27T02:37:31;7.90;;;2.70;;
74541;SDS011;63015;45.378;20.360;2024-01-27T02:39:31;10.00;;;3.15;;
74541;SDS011;63015;45.378;20.360;2024-01-27T02:41:32;6.53;;;1.95;;
74541;SDS011;63015;45.378;20.360;2024-01-27T02:43:38;6.13;;;2.63;;
74541;SDS011;63015;45.378;20.360;2024-01-27T02:45:39;12.07;;;3.65;;
74541;SDS011;63015;45.378;20.360;2024-01-27T02:47:39;5.55;;;2.03;;
74541;SDS011;63015;45.378;20.360;2024-01-27T02:49:40;7.82;;;2.25;;
74541;SDS011;63015;45.378;20.360;2024-01-27T02:51:41;9.38;;;2.85;;
74541;SDS011;63015;45.378;20.360;2024-01-27T02:53:41;8.65;;;2.80;;
74541;SDS011;63015;45.378;20.360;2024-01-27T02:55:42;9.35;;;2.85;;
74541;SDS011;63015;45.378;20.360;2024-01-27T02:57:42;7.82;;;3.05;;
74541;SDS011;63015;45.378;20.360;2024-01-27T02:59:45;6.38;;;1.95;;
74541;SDS011;63015;45.378;20.360;2024-01-27T03:01:48;7.97;;;2.90;;
74541;SDS011;63015;45.378;20.360;2024-01-27T03:03:49;7.82;;;2.90;;
74541;SDS011;63015;45.378;20.360;2024-01-27T03:05:49;6.15;;;1.42;;
74541;SDS011;63015;45.378;20.360;2024-01-27T03:07:50;3.90;;;1.23;;
74541;SDS011;63015;45.378;20.360;2024-01-27T03:09:50;3.47;;;1.17;;
74541;SDS011;63015;45.378;20.360;2024-01-27T03:11:50;5.78;;;1.40;;
74541;SDS011;63015;45.378;20.360;2024-01-27T03:13:51;4.45;;;1.50;;
74541;SDS011;63015;45.378;20.360;2024-01-27T03:15:51;4.22;;;1.35;;
74541;SDS011;63015;45.378;20.360;2024-01-27T03:17:52;6.75;;;2.00;;
74541;SDS011;63015;45.378;20.360;2024-01-27T03:19:52;6.22;;;2.10;;
74541;SDS011;63015;45.378;20.360;2024-01-27T03:21:53;3.97;;;1.17;;
74541;SDS011;63015;45.378;20.360;2024-01-27T03:23:53;3.60;;;1.52;;
74541;SDS011;63015;45.378;20.360;2024-01-27T03:25:54;4.15;;;1.27;;
74541;SDS011;63015;45.378;20.360;2024-01-27T03:27:54;4.30;;;1.23;;
74541;SDS011;63015;45.378;20.360;2024-01-27T03:29:58;3.72;;;1.15;;
74541;SDS011;63015;45.378;20.360;2024-01-27T03:32:00;5.00;;;1.55;;
74541;SDS011;63015;45.378;20.360;2024-01-27T03:34:01;4.60;;;1.50;;
74541;SDS011;63015;45.378;20.360;2024-01-27T03:36:02;5.07;;;1.58;;
74541;SDS011;63015;45.378;20.360;2024-01-27T03:38:03;4.63;;;1.52;;
74541;SDS011;63015;45.378;20.360;2024-01-27T03:40:03;3.15;;;0.85;;
74541;SDS011;63015;45.378;20.360;2024-01-27T03:42:04;4.20;;;1.20;;
74541;SDS011;63015;45.378;20.360;2024-01-27T03:44:05;4.22;;;1.08;;
74541;SDS011;63015;45.378;20.360;2024-01-27T03:46:05;1.90;;;0.50;;
74541;SDS011;63015;45.378;20.360;2024-01-27T03:48:06;3.38;;;1.23;;
74541;SDS011;63015;45.378;20.360;2024-01-27T03:50:07;4.22;;;0.88;;
74541;SDS011;63015;45.378;20.360;2024-01-27T03:52:07;3.03;;;1.10;;
74541;SDS011;63015;45.378;20.360;2024-01-27T03:54:08;7.13;;;0.90;;
74541;SDS011;63015;45.378;20.360;2024-01-27T03:56:11;3.25;;;0.90;;
74541;SDS011;63015;45.378;20.360;2024-01-27T03:58:12;3.63;;;1.17;;
74541;SDS011;63015;45.378;20.360;2024-01-27T04:00:13;1.80;;;0.50;;
74541;SDS011;63015;45.378;20.360;2024-01-27T04:02:13;2.67;;;0.68;;
74541;SDS011;63015;45.378;20.360;2024-01-27T04:04:14;2.80;;;0.90;;
74541;SDS011;63015;45.378;20.360;2024-01-27T04:06:14;2.90;;;0.70;;
74541;SDS011;63015;45.378;20.360;2024-01-27T04:08:15;1.70;;;0.40;;
74541;SDS011;63015;45.378;20.360;2024-01-27T04:10:16;1.25;;;0.30;;
74541;SDS011;63015;45.378;20.360;2024-01-27T04:12:17;3.10;;;0.80;;
74541;SDS011;63015;45.378;20.360;2024-01-27T04:14:18;1.00;;;0.30;;
74541;SDS011;63015;45.378;20.360;2024-01-27T04:16:19;3.33;;;0.60;;
74541;SDS011;63015;45.378;20.360;2024-01-27T04:18:19;2.80;;;0.57;;
74541;SDS011;63015;45.378;20.360;2024-01-27T04:20:20;3.72;;;0.40;;
74541;SDS011;63015;45.378;20.360;2024-01-27T04:22:20;1.90;;;0.45;;
74541;SDS011;63015;45.378;20.360;2024-01-27T04:24:21;1.58;;;0.40;;
74541;SDS011;63015;45.378;20.360;2024-01-27T04:26:21;1.10;;;0.25;;
74541;SDS011;63015;45.378;20.360;2024-01-27T04:28:22;1.92;;;0.38;;
74541;SDS011;63015;45.378;20.360;2024-01-27T04:30:23;2.40;;;0.47;;
74541;SDS011;63015;45.378;20.360;2024-01-27T04:32:23;2.50;;;0.45;;
74541;SDS011;63015;45.378;20.360;2024-01-27T04:34:24;1.20;;;0.28;;
74541;SDS011;63015;45.378;20.360;2024-01-27T04:36:28;1.90;;;0.30;;
74541;SDS011;63015;45.378;20.360;2024-01-27T04:38:29;1.67;;;0.47;;
74541;SDS011;63015;45.378;20.360;2024-01-27T04:40:30;0.90;;;0.20;;
74541;SDS011;63015;45.378;20.360;2024-01-27T04:42:32;1.70;;;0.10;;
74541;SDS011;63015;45.378;20.360;2024-01-27T04:44:39;2.30;;;0.40;;
74541;SDS011;63015;45.378;20.360;2024-01-27T04:46:41;1.25;;;0.22;;
74541;SDS011;63015;45.378;20.360;2024-01-27T04:48:42;1.40;;;0.75;;
74541;SDS011;63015;45.378;20.360;2024-01-27T04:50:43;1.75;;;0.43;;
74541;SDS011;63015;45.378;20.360;2024-01-27T04:52:43;1.55;;;0.30;;
74541;SDS011;63015;45.378;20.360;2024-01-27T04:54:44;1.00;;;0.20;;
74541;SDS011;63015;45.378;20.360;2024-01-27T04:56:44;2.67;;;0.50;;
74541;SDS011;63015;45.378;20.360;2024-01-27T04:58:44;3.10;;;0.47;;
74541;SDS011;63015;45.378;20.360;2024-01-27T05:00:45;3.05;;;0.25;;
74541;SDS011;63015;45.378;20.360;2024-01-27T05:02:46;1.77;;;0.30;;
74541;SDS011;63015;45.378;20.360;2024-01-27T05:04:46;0.98;;;0.22;;
74541;SDS011;63015;45.378;20.360;2024-01-27T05:06:47;1.52;;;0.30;;
74541;SDS011;63015;45.378;20.360;2024-01-27T05:08:47;2.35;;;0.30;;
74541;SDS011;63015;45.378;20.360;2024-01-27T05:10:48;1.05;;;0.30;;
74541;SDS011;63015;45.378;20.360;2024-01-27T05:12:48;2.17;;;0.25;;
74541;SDS011;63015;45.378;20.360;2024-01-27T05:14:48;1.55;;;0.30;;
74541;SDS011;63015;45.378;20.360;2024-01-27T05:16:49;3.20;;;0.47;;
74541;SDS011;63015;45.378;20.360;2024-01-27T05:18:49;2.67;;;0.35;;
74541;SDS011;63015;45.378;20.360;2024-01-27T05:20:50;1.33;;;0.35;;
74541;SDS011;63015;45.378;20.360;2024-01-27T05:22:50;2.25;;;0.22;;
74541;SDS011;63015;45.378;20.360;2024-01-27T05:24:51;2.45;;;0.52;;
74541;SDS011;63015;45.378;20.360;2024-01-27T05:26:51;2.80;;;0.40;;
74541;SDS011;63015;45.378;20.360;2024-01-27T05:28:52;2.38;;;0.32;;
74541;SDS011;63015;45.378;20.360;2024-01-27T05:30:53;3.38;;;0.47;;
74541;SDS011;63015;45.378;20.360;2024-01-27T05:32:53;0.50;;;0.10;;
74541;SDS011;63015;45.378;20.360;2024-01-27T05:34:53;0.90;;;0.28;;
74541;SDS011;63015;45.378;20.360;2024-01-27T05:36:54;1.48;;;0.40;;
74541;SDS011;63015;45.378;20.360;2024-01-27T05:38:54;1.70;;;0.50;;
74541;SDS011;63015;45.378;20.360;2024-01-27T05:40:55;2.33;;;0.40;;
74541;SDS011;63015;45.378;20.360;2024-01-27T05:42:55;1.85;;;0.35;;
74541;SDS011;63015;45.378;20.360;2024-01-27T05:44:56;1.48;;;0.30;;
74541;SDS011;63015;45.378;20.360;2024-01-27T05:46:57;2.30;;;0.55;;
74541;SDS011;63015;45.378;20.360;2024-01-27T05:48:57;1.35;;;0.40;;
74541;SDS011;63015;45.378;20.360;2024-01-27T05:51:03;1.98;;;0.25;;
74541;SDS011;63015;45.378;20.360;2024-01-27T05:53:03;1.63;;;0.52;;
74541;SDS011;63015;45.378;20.360;2024-01-27T05:55:04;2.45;;;0.65;;
74541;SDS011;63015;45.378;20.360;2024-01-27T05:57:06;1.77;;;0.70;;
74541;SDS011;63015;45.378;20.360;2024-01-27T05:59:07;2.88;;;0.68;;
74541;SDS011;63015;45.378;20.360;2024-01-27T06:01:07;1.75;;;0.35;;
74541;SDS011;63015;45.378;20.360;2024-01-27T06:03:09;2.28;;;0.75;;
74541;SDS011;63015;45.378;20.360;2024-01-27T06:05:10;1.83;;;0.65;;
74541;SDS011;63015;45.378;20.360;2024-01-27T06:07:11;2.38;;;0.50;;
74541;SDS011;63015;45.378;20.360;2024-01-27T06:09:11;1.60;;;0.45;;
74541;SDS011;63015;45.378;20.360;2024-01-27T06:11:12;2.35;;;0.32;;
74541;SDS011;63015;45.378;20.360;2024-01-27T06:13:12;1.50;;;0.40;;
74541;SDS011;63015;45.378;20.360;2024-01-27T06:15:13;1.25;;;0.30;;
74541;SDS011;63015;45.378;20.360;2024-01-27T06:17:15;4.35;;;1.27;;
74541;SDS011;63015;45.378;20.360;2024-01-27T06:19:16;2.22;;;0.50;;
74541;SDS011;63015;45.378;20.360;2024-01-27T06:21:16;2.55;;;0.65;;
74541;SDS011;63015;45.378;20.360;2024-01-27T06:23:17;2.17;;;0.43;;
74541;SDS011;63015;45.378;20.360;2024-01-27T06:25:18;4.75;;;0.60;;
74541;SDS011;63015;45.378;20.360;2024-01-27T06:27:18;2.35;;;0.40;;
74541;SDS011;63015;45.378;20.360;2024-01-27T06:29:19;1.60;;;0.28;;
74541;SDS011;63015;45.378;20.360;2024-01-27T06:31:20;1.15;;;0.43;;
74541;SDS011;63015;45.378;20.360;2024-01-27T06:33:20;1.08;;;0.20;;
74541;SDS011;63015;45.378;20.360;2024-01-27T06:35:21;4.10;;;0.70;;
74541;SDS011;63015;45.378;20.360;2024-01-27T06:37:21;2.22;;;0.52;;
74541;SDS011;63015;45.378;20.360;2024-01-27T06:39:21;2.42;;;0.60;;
74541;SDS011;63015;45.378;20.360;2024-01-27T06:41:22;1.85;;;0.50;;
74541;SDS011;63015;45.378;20.360;2024-01-27T06:43:23;1.50;;;0.32;;
74541;SDS011;63015;45.378;20.360;2024-01-27T06:45:24;1.52;;;0.40;;
74541;SDS011;63015;45.378;20.360;2024-01-27T06:47:24;1.35;;;0.45;;
74541;SDS011;63015;45.378;20.360;2024-01-27T06:49:25;2.13;;;0.57;;
74541;SDS011;63015;45.378;20.360;2024-01-27T06:51:25;2.08;;;0.40;;
74541;SDS011;63015;45.378;20.360;2024-01-27T06:53:25;2.70;;;0.70;;
74541;SDS011;63015;45.378;20.360;2024-01-27T06:55:26;2.35;;;0.50;;
74541;SDS011;63015;45.378;20.360;2024-01-27T06:57:27;2.97;;;0.75;;
74541;SDS011;63015;45.378;20.360;2024-01-27T06:59:27;2.78;;;0.98;;
74541;SDS011;63015;45.378;20.360;2024-01-27T07:01:28;1.67;;;0.40;;
74541;SDS011;63015;45.378;20.360;2024-01-27T07:03:29;1.27;;;0.32;;
74541;SDS011;63015;45.378;20.360;2024-01-27T07:05:29;2.35;;;0.47;;
74541;SDS011;63015;45.378;20.360;2024-01-27T07:07:32;2.13;;;0.40;;
74541;SDS011;63015;45.378;20.360;2024-01-27T07:09:32;2.58;;;0.47;;
74541;SDS011;63015;45.378;20.360;2024-01-27T07:11:33;1.40;;;0.40;;
74541;SDS011;63015;45.378;20.360;2024-01-27T07:13:33;2.28;;;0.50;;
74541;SDS011;63015;45.378;20.360;2024-01-27T07:15:34;1.88;;;0.43;;
74541;SDS011;63015;45.378;20.360;2024-01-27T07:17:37;2.75;;;0.65;;
74541;SDS011;63015;45.378;20.360;2024-01-27T07:19:38;2.03;;;0.52;;
74541;SDS011;63015;45.378;20.360;2024-01-27T07:21:38;4.75;;;0.57;;
74541;SDS011;63015;45.378;20.360;2024-01-27T07:23:38;2.13;;;0.50;;
74541;SDS011;63015;45.378;20.360;2024-01-27T07:25:39;3.42;;;0.65;;
74541;SDS011;63015;45.378;20.360;2024-01-27T07:27:39;2.30;;;0.82;;
74541;SDS011;63015;45.378;20.360;2024-01-27T07:29:40;3.15;;;0.80;;
74541;SDS011;63015;45.378;20.360;2024-01-27T07:31:40;3.95;;;0.55;;
74541;SDS011;63015;45.378;20.360;2024-01-27T07:33:41;1.85;;;0.55;;
74541;SDS011;63015;45.378;20.360;2024-01-27T07:35:41;2.88;;;0.90;;
74541;SDS011;63015;45.378;20.360;2024-01-27T07:37:42;2.67;;;0.60;;
74541;SDS011;63015;45.378;20.360;2024-01-27T07:39:43;2.45;;;0.40;;
74541;SDS011;63015;45.378;20.360;2024-01-27T07:41:43;2.08;;;0.38;;
74541;SDS011;63015;45.378;20.360;2024-01-27T07:43:44;2.42;;;0.43;;
74541;SDS011;63015;45.378;20.360;2024-01-27T07:45:44;2.08;;;0.43;;
74541;SDS011;63015;45.378;20.360;2024-01-27T07:47:45;4.13;;;0.60;;
74541;SDS011;63015;45.378;20.360;2024-01-27T07:49:45;2.97;;;0.60;;
74541;SDS011;63015;45.378;20.360;2024-01-27T07:51:46;2.53;;;0.60;;
74541;SDS011;63015;45.378;20.360;2024-01-27T07:53:46;5.15;;;0.57;;
74541;SDS011;63015;45.378;20.360;2024-01-27T07:55:47;2.72;;;0.75;;
74541;SDS011;63015;45.378;20.360;2024-01-27T07:57:47;2.70;;;0.82;;
74541;SDS011;63015;45.378;20.360;2024-01-27T07:59:48;3.65;;;0.73;;
74541;SDS011;63015;45.378;20.360;2024-01-27T08:01:48;2.63;;;0.82;;
74541;SDS011;63015;45.378;20.360;2024-01-27T08:03:49;2.80;;;0.55;;
74541;SDS011;63015;45.378;20.360;2024-01-27T08:05:49;3.38;;;0.40;;
74541;SDS011;63015;45.378;20.360;2024-01-27T08:07:50;2.05;;;0.50;;
74541;SDS011;63015;45.378;20.360;2024-01-27T08:09:50;3.67;;;0.82;;
74541;SDS011;63015;45.378;20.360;2024-01-27T08:11:51;3.40;;;0.77;;
74541;SDS011;63015;45.378;20.360;2024-01-27T08:13:52;2.92;;;0.90;;
74541;SDS011;63015;45.378;20.360;2024-01-27T08:15:54;2.05;;;0.80;;
74541;SDS011;63015;45.378;20.360;2024-01-27T08:17:54;3.78;;;0.80;;
74541;SDS011;63015;45.378;20.360;2024-01-27T08:19:55;3.85;;;0.82;;
74541;SDS011;63015;45.378;20.360;2024-01-27T08:21:55;2.45;;;0.60;;
74541;SDS011;63015;45.378;20.360;2024-01-27T08:23:55;6.18;;;1.00;;
74541;SDS011;63015;45.378;20.360;2024-01-27T08:25:56;2.03;;;0.47;;
74541;SDS011;63015;45.378;20.360;2024-01-27T08:27:56;3.35;;;0.63;;
74541;SDS011;63015;45.378;20.360;2024-01-27T08:29:57;4.03;;;0.70;;
74541;SDS011;63015;45.378;20.360;2024-01-27T08:31:57;2.42;;;0.52;;
74541;SDS011;63015;45.378;20.360;2024-01-27T08:33:58;2.90;;;0.68;;
74541;SDS011;63015;45.378;20.360;2024-01-27T08:35:58;2.88;;;0.63;;
74541;SDS011;63015;45.378;20.360;2024-01-27T08:37:59;3.38;;;0.40;;
74541;SDS011;63015;45.378;20.360;2024-01-27T08:40:00;1.90;;;0.50;;
74541;SDS011;63015;45.378;20.360;2024-01-27T08:42:00;3.28;;;0.52;;
74541;SDS011;63015;45.378;20.360;2024-01-27T08:44:01;2.33;;;0.68;;
74541;SDS011;63015;45.378;20.360;2024-01-27T08:46:01;2.53;;;0.60;;
74541;SDS011;63015;45.378;20.360;2024-01-27T08:48:02;1.60;;;0.35;;
74541;SDS011;63015;45.378;20.360;2024-01-27T08:50:02;3.30;;;0.73;;
74541;SDS011;63015;45.378;20.360;2024-01-27T08:52:04;3.83;;;0.70;;
74541;SDS011;63015;45.378;20.360;2024-01-27T08:54:05;2.67;;;0.55;;
74541;SDS011;63015;45.378;20.360;2024-01-27T08:56:05;3.78;;;0.50;;
74541;SDS011;63015;45.378;20.360;2024-01-27T08:58:06;3.15;;;0.40;;
74541;SDS011;63015;45.378;20.360;2024-01-27T09:00:06;6.55;;;0.90;;
74541;SDS011;63015;45.378;20.360;2024-01-27T09:02:07;3.28;;;0.60;;
74541;SDS011;63015;45.378;20.360;2024-01-27T09:04:08;2.50;;;0.82;;
74541;SDS011;63015;45.378;20.360;2024-01-27T09:06:09;1.58;;;0.45;;
74541;SDS011;63015;45.378;20.360;2024-01-27T09:08:10;3.05;;;0.65;;
74541;SDS011;63015;45.378;20.360;2024-01-27T09:10:10;4.72;;;1.05;;
74541;SDS011;63015;45.378;20.360;2024-01-27T09:14:14;3.50;;;0.75;;
74541;SDS011;63015;45.378;20.360;2024-01-27T09:16:14;2.28;;;0.57;;
74541;SDS011;63015;45.378;20.360;2024-01-27T09:18:15;3.13;;;0.70;;
74541;SDS011;63015;45.378;20.360;2024-01-27T09:20:17;1.65;;;0.30;;
74541;SDS011;63015;45.378;20.360;2024-01-27T09:22:17;1.85;;;0.30;;
74541;SDS011;63015;45.378;20.360;2024-01-27T09:24:17;3.85;;;0.70;;
74541;SDS011;63015;45.378;20.360;2024-01-27T09:26:18;4.30;;;0.80;;
74541;SDS011;63015;45.378;20.360;2024-01-27T09:28:18;2.95;;;0.43;;
74541;SDS011;63015;45.378;20.360;2024-01-27T09:30:19;4.37;;;0.60;;
74541;SDS011;63015;45.378;20.360;2024-01-27T09:32:19;2.88;;;0.80;;
74541;SDS011;63015;45.378;20.360;2024-01-27T09:34:20;2.85;;;0.63;;
74541;SDS011;63015;45.378;20.360;2024-01-27T09:36:20;1.20;;;0.17;;
74541;SDS011;63015;45.378;20.360;2024-01-27T09:38:21;3.08;;;0.40;;
74541;SDS011;63015;45.378;20.360;2024-01-27T09:40:21;2.53;;;0.38;;
74541;SDS011;63015;45.378;20.360;2024-01-27T09:42:22;5.15;;;0.70;;
74541;SDS011;63015;45.378;20.360;2024-01-27T09:44:23;4.30;;;0.77;;
74541;SDS011;63015;45.378;20.360;2024-01-27T09:46:25;2.88;;;0.57;;
74541;SDS011;63015;45.378;20.360;2024-01-27T09:48:26;4.25;;;0.40;;
74541;SDS011;63015;45.378;20.360;2024-01-27T09:50:27;3.05;;;0.88;;
74541;SDS011;63015;45.378;20.360;2024-01-27T09:52:28;2.58;;;0.93;;
74541;SDS011;63015;45.378;20.360;2024-01-27T09:54:28;4.75;;;0.80;;
74541;SDS011;63015;45.378;20.360;2024-01-27T09:56:29;1.58;;;0.35;;
74541;SDS011;63015;45.378;20.360;2024-01-27T09:58:31;2.10;;;0.43;;
74541;SDS011;63015;45.378;20.360;2024-01-27T10:00:32;2.17;;;0.43;;
74541;SDS011;63015;45.378;20.360;2024-01-27T10:02:35;1.00;;;0.32;;
74541;SDS011;63015;45.378;20.360;2024-01-27T10:04:38;2.97;;;0.60;;
74541;SDS011;63015;45.378;20.360;2024-01-27T10:06:41;2.40;;;0.63;;
74541;SDS011;63015;45.378;20.360;2024-01-27T10:08:42;4.30;;;0.65;;
74541;SDS011;63015;45.378;20.360;2024-01-27T10:10:48;4.07;;;0.80;;
74541;SDS011;63015;45.378;20.360;2024-01-27T10:12:54;2.55;;;0.90;;
74541;SDS011;63015;45.378;20.360;2024-01-27T10:14:58;2.78;;;0.63;;
74541;SDS011;63015;45.378;20.360;2024-01-27T10:16:59;2.67;;;0.43;;
74541;SDS011;63015;45.378;20.360;2024-01-27T10:19:00;3.78;;;0.65;;
74541;SDS011;63015;45.378;20.360;2024-01-27T10:23:14;2.75;;;0.40;;
74541;SDS011;63015;45.378;20.360;2024-01-27T10:25:15;2.95;;;0.70;;
74541;SDS011;63015;45.378;20.360;2024-01-27T10:27:17;4.63;;;0.82;;
74541;SDS011;63015;45.378;20.360;2024-01-27T10:29:18;5.70;;;0.77;;
74541;SDS011;63015;45.378;20.360;2024-01-27T10:31:18;2.75;;;0.60;;
74541;SDS011;63015;45.378;20.360;2024-01-27T10:33:23;4.15;;;0.88;;
74541;SDS011;63015;45.378;20.360;2024-01-27T10:35:24;3.30;;;0.50;;
74541;SDS011;63015;45.378;20.360;2024-01-27T10:37:24;3.70;;;0.70;;
74541;SDS011;63015;45.378;20.360;2024-01-27T10:39:25;2.00;;;0.38;;
74541;SDS011;63015;45.378;20.360;2024-01-27T10:41:25;2.53;;;0.45;;
74541;SDS011;63015;45.378;20.360;2024-01-27T10:43:27;6.03;;;0.70;;
74541;SDS011;63015;45.378;20.360;2024-01-27T10:45:30;2.90;;;0.70;;
74541;SDS011;63015;45.378;20.360;2024-01-27T10:47:35;3.80;;;0.73;;
74541;SDS011;63015;45.378;20.360;2024-01-27T10:49:37;3.40;;;0.65;;
74541;SDS011;63015;45.378;20.360;2024-01-27T10:51:43;3.50;;;0.55;;
74541;SDS011;63015;45.378;20.360;2024-01-27T10:53:50;3.45;;;0.50;;
74541;SDS011;63015;45.378;20.360;2024-01-27T10:57:57;4.43;;;0.85;;
74541;SDS011;63015;45.378;20.360;2024-01-27T11:00:02;5.05;;;0.43;;
74541;SDS011;63015;45.378;20.360;2024-01-27T11:02:06;4.53;;;0.75;;
74541;SDS011;63015;45.378;20.360;2024-01-27T11:04:13;3.63;;;0.45;;
74541;SDS011;63015;45.378;20.360;2024-01-27T11:06:14;3.70;;;0.77;;
74541;SDS011;63015;45.378;20.360;2024-01-27T11:08:17;7.00;;;0.82;;
74541;SDS011;63015;45.378;20.360;2024-01-27T11:10:19;1.13;;;0.28;;
74541;SDS011;63015;45.378;20.360;2024-01-27T11:12:19;3.90;;;0.63;;
74541;SDS011;63015;45.378;20.360;2024-01-27T11:14:23;7.15;;;0.75;;
74541;SDS011;63015;45.378;20.360;2024-01-27T11:16:23;2.03;;;0.50;;
74541;SDS011;63015;45.378;20.360;2024-01-27T11:18:24;2.20;;;0.73;;
74541;SDS011;63015;45.378;20.360;2024-01-27T11:20:25;1.55;;;0.40;;
74541;SDS011;63015;45.378;20.360;2024-01-27T11:22:27;2.50;;;0.35;;
74541;SDS011;63015;45.378;20.360;2024-01-27T11:24:28;3.75;;;0.50;;
74541;SDS011;63015;45.378;20.360;2024-01-27T11:26:29;2.05;;;0.45;;
74541;SDS011;63015;45.378;20.360;2024-01-27T11:28:30;2.90;;;0.60;;
74541;SDS011;63015;45.378;20.360;2024-01-27T11:30:30;4.40;;;0.60;;
74541;SDS011;63015;45.378;20.360;2024-01-27T11:32:34;2.78;;;0.45;;
74541;SDS011;63015;45.378;20.360;2024-01-27T11:34:43;2.97;;;0.77;;
74541;SDS011;63015;45.378;20.360;2024-01-27T11:36:44;2.60;;;0.70;;
74541;SDS011;63015;45.378;20.360;2024-01-27T11:38:45;3.33;;;0.50;;
74541;SDS011;63015;45.378;20.360;2024-01-27T11:40:46;2.28;;;0.40;;
74541;SDS011;63015;45.378;20.360;2024-01-27T11:42:54;2.17;;;0.57;;
74541;SDS011;63015;45.378;20.360;2024-01-27T11:44:58;1.77;;;0.43;;
74541;SDS011;63015;45.378;20.360;2024-01-27T11:46:59;2.00;;;0.40;;
74541;SDS011;63015;45.378;20.360;2024-01-27T11:48:59;3.83;;;0.52;;
74541;SDS011;63015;45.378;20.360;2024-01-27T11:51:05;3.63;;;0.77;;
74541;SDS011;63015;45.378;20.360;2024-01-27T11:53:06;2.15;;;0.55;;
74541;SDS011;63015;45.378;20.360;2024-01-27T11:57:10;2.42;;;0.47;;
74541;SDS011;63015;45.378;20.360;2024-01-27T11:59:10;3.20;;;0.30;;
74541;SDS011;63015;45.378;20.360;2024-01-27T12:01:11;1.65;;;0.25;;
74541;SDS011;63015;45.378;20.360;2024-01-27T12:03:11;1.55;;;0.30;;